sensor_id;sensor_type;location;lat;lon;timestamp;pressure;altitude;pressure_sealevel;temperature;humidity
82413;BME280;72056;51.980;15.436;2024-01-11T00:01:34;102228.25;;;-10.54;100.00
82413;BME280;72056;51.980;15.436;2024-01-11T00:04:01;102181.59;;;-10.67;100.00
82413;BME280;72056;51.980;15.436;2024-01-11T00:06:28;102194.06;;;-10.54;100.00
82413;BME280;72056;51.980;15.436;2024-01-11T00:08:54;102207.47;;;-10.40;100.00
82413;BME280;72056;51.980;15.436;2024-01-11T00:11:20;102197.72;;;-10.46;100.00
82413;BME280;72056;51.980;15.436;2024-01-11T00:13:47;102188.06;;;-10.47;100.00
82413;BME280;72056;51.980;15.436;2024-01-11T00:16:13;102202.28;;;-10.36;100.00
82413;BME280;72056;51.980;15.436;2024-01-11T00:18:41;102218.91;;;-10.38;100.00
82413;BME280;72056;51.980;15.436;2024-01-11T00:21:08;102181.66;;;-10.62;100.00
82413;BME280;72056;51.980;15.436;2024-01-11T00:23:35;102203.78;;;-10.51;100.00
82413;BME280;72056;51.980;15.436;2024-01-11T00:26:02;102182.50;;;-10.63;100.00
82413;BME280;72056;51.980;15.436;2024-01-11T00:28:29;102186.38;;;-10.42;100.00
82413;BME280;72056;51.980;15.436;2024-01-11T00:30:56;102189.03;;;-10.40;100.00
82413;BME280;72056;51.980;15.436;2024-01-11T00:33:23;102188.25;;;-10.35;100.00
82413;BME280;72056;51.980;15.436;2024-01-11T00:35:51;102156.28;;;-10.59;100.00
82413;BME280;72056;51.980;15.436;2024-01-11T00:38:18;102189.03;;;-10.40;100.00
82413;BME280;72056;51.980;15.436;2024-01-11T00:40:44;102196.13;;;-10.38;100.00
82413;BME280;72056;51.980;15.436;2024-01-11T00:43:11;102154.53;;;-10.58;100.00
82413;BME280;72056;51.980;15.436;2024-01-11T00:45:38;102173.22;;;-10.43;100.00
82413;BME280;72056;51.980;15.436;2024-01-11T00:48:05;102173.91;;;-10.55;100.00
82413;BME280;72056;51.980;15.436;2024-01-11T00:50:31;102167.84;;;-10.49;100.00
82413;BME280;72056;51.980;15.436;2024-01-11T00:52:57;102165.19;;;-10.51;100.00
82413;BME280;72056;51.980;15.436;2024-01-11T00:55:24;102138.88;;;-10.51;100.00
82413;BME280;72056;51.980;15.436;2024-01-11T00:57:50;102163.94;;;-10.20;100.00
82413;BME280;72056;51.980;15.436;2024-01-11T01:00:18;102176.34;;;-10.10;100.00
82413;BME280;72056;51.980;15.436;2024-01-11T01:02:44;102146.25;;;-10.28;100.00
82413;BME280;72056;51.980;15.436;2024-01-11T01:05:12;102132.16;;;-10.30;100.00
82413;BME280;72056;51.980;15.436;2024-01-11T01:07:38;102133.94;;;-10.31;100.00
82413;BME280;72056;51.980;15.436;2024-01-11T01:10:04;102129.72;;;-10.18;100.00
82413;BME280;72056;51.980;15.436;2024-01-11T01:12:31;102108.81;;;-10.06;100.00
82413;BME280;72056;51.980;15.436;2024-01-11T01:14:58;102122.38;;;-9.79;100.00
82413;BME280;72056;51.980;15.436;2024-01-11T01:17:24;102123.22;;;-9.80;100.00
82413;BME280;72056;51.980;15.436;2024-01-11T01:19:50;102090.00;;;-9.69;100.00
82413;BME280;72056;51.980;15.436;2024-01-11T01:22:17;102091.88;;;-9.57;100.00
82413;BME280;72056;51.980;15.436;2024-01-11T01:24:43;102100.88;;;-9.40;100.00
82413;BME280;72056;51.980;15.436;2024-01-11T01:27:09;102118.63;;;-9.25;100.00
82413;BME280;72056;51.980;15.436;2024-01-11T01:29:36;102111.75;;;-9.10;100.00
82413;BME280;72056;51.980;15.436;2024-01-11T01:32:03;102120.59;;;-9.03;100.00
82413;BME280;72056;51.980;15.436;2024-01-11T01:34:30;102110.00;;;-9.09;100.00
82413;BME280;72056;51.980;15.436;2024-01-11T01:36:57;102101.13;;;-9.16;100.00
82413;BME280;72056;51.980;15.436;2024-01-11T01:39:23;102112.63;;;-9.12;100.00
82413;BME280;72056;51.980;15.436;2024-01-11T01:41:50;102096.66;;;-9.24;100.00
82413;BME280;72056;51.980;15.436;2024-01-11T01:44:16;102102.72;;;-9.33;100.00
82413;BME280;72056;51.980;15.436;2024-01-11T01:46:43;102085.09;;;-9.38;100.00
82413;BME280;72056;51.980;15.436;2024-01-11T01:49:10;102093.97;;;-9.30;100.00
82413;BME280;72056;51.980;15.436;2024-01-11T01:51:37;102093.06;;;-9.31;100.00
82413;BME280;72056;51.980;15.436;2024-01-11T01:54:04;102093.06;;;-9.32;100.00
82413;BME280;72056;51.980;15.436;2024-01-11T01:56:31;102104.44;;;-9.35;100.00
82413;BME280;72056;51.980;15.436;2024-01-11T01:58:59;102085.06;;;-9.40;100.00
82413;BME280;72056;51.980;15.436;2024-01-11T02:01:26;102101.81;;;-9.33;100.00
82413;BME280;72056;51.980;15.436;2024-01-11T02:03:54;102092.97;;;-9.41;100.00
82413;BME280;72056;51.980;15.436;2024-01-11T02:06:23;102110.53;;;-9.40;100.00
82413;BME280;72056;51.980;15.436;2024-01-11T02:08:51;102120.13;;;-9.45;100.00
82413;BME280;72056;51.980;15.436;2024-01-11T02:11:21;102110.31;;;-9.59;100.00
82413;BME280;72056;51.980;15.436;2024-01-11T02:13:50;102134.06;;;-9.56;100.00
82413;BME280;72056;51.980;15.436;2024-01-11T02:16:17;102133.09;;;-9.64;100.00
82413;BME280;72056;51.980;15.436;2024-01-11T02:18:43;102122.56;;;-9.62;100.00
82413;BME280;72056;51.980;15.436;2024-01-11T02:21:11;102131.31;;;-9.65;100.00
82413;BME280;72056;51.980;15.436;2024-01-11T02:24:03;102126.00;;;-9.69;100.00
82413;BME280;72056;51.980;15.436;2024-01-11T02:26:29;102123.31;;;-9.74;100.00
82413;BME280;72056;51.980;15.436;2024-01-11T02:28:56;102129.44;;;-9.75;100.00
82413;BME280;72056;51.980;15.436;2024-01-11T02:31:22;102125.81;;;-9.83;100.00
82413;BME280;72056;51.980;15.436;2024-01-11T02:33:49;102154.22;;;-9.61;100.00
82413;BME280;72056;51.980;15.436;2024-01-11T02:36:17;102149.81;;;-9.62;100.00
82413;BME280;72056;51.980;15.436;2024-01-11T02:38:44;102148.13;;;-9.55;100.00
82413;BME280;72056;51.980;15.436;2024-01-11T02:41:11;102156.06;;;-9.54;100.00
82413;BME280;72056;51.980;15.436;2024-01-11T02:43:37;102151.66;;;-9.53;100.00
82413;BME280;72056;51.980;15.436;2024-01-11T02:46:04;102144.63;;;-9.56;100.00
82413;BME280;72056;51.980;15.436;2024-01-11T02:48:31;102156.94;;;-9.55;100.00
82413;BME280;72056;51.980;15.436;2024-01-11T02:50:59;102134.78;;;-9.69;100.00
82413;BME280;72056;51.980;15.436;2024-01-11T02:53:25;102129.47;;;-9.73;100.00
82413;BME280;72056;51.980;15.436;2024-01-11T02:55:52;102138.16;;;-9.79;100.00
82413;BME280;72056;51.980;15.436;2024-01-11T02:58:18;102135.78;;;-9.61;100.00
82413;BME280;72056;51.980;15.436;2024-01-11T03:00:46;102130.38;;;-9.71;100.00
82413;BME280;72056;51.980;15.436;2024-01-11T03:03:12;102139.28;;;-9.62;100.00
82413;BME280;72056;51.980;15.436;2024-01-11T03:05:40;102152.63;;;-9.46;100.00
82413;BME280;72056;51.980;15.436;2024-01-11T03:08:07;102139.44;;;-9.46;100.00
82413;BME280;72056;51.980;15.436;2024-01-11T03:10:33;102129.81;;;-9.44;100.00
82413;BME280;72056;51.980;15.436;2024-01-11T03:13:00;102127.09;;;-9.54;100.00
82413;BME280;72056;51.980;15.436;2024-01-11T03:15:26;102117.34;;;-9.59;100.00
82413;BME280;72056;51.980;15.436;2024-01-11T03:17:53;102113.75;;;-9.64;100.00
82413;BME280;72056;51.980;15.436;2024-01-11T03:20:19;102120.91;;;-9.56;100.00
82413;BME280;72056;51.980;15.436;2024-01-11T03:22:53;102098.91;;;-9.59;100.00
82413;BME280;72056;51.980;15.436;2024-01-11T03:25:19;102125.53;;;-9.35;100.00
82413;BME280;72056;51.980;15.436;2024-01-11T03:27:47;102125.69;;;-9.21;100.00
82413;BME280;72056;51.980;15.436;2024-01-11T03:30:13;102141.59;;;-9.11;100.00
82413;BME280;72056;51.980;15.436;2024-01-11T03:32:40;102139.84;;;-9.10;100.00
82413;BME280;72056;51.980;15.436;2024-01-11T03:35:07;102123.25;;;-9.01;100.00
82413;BME280;72056;51.980;15.436;2024-01-11T03:37:38;102116.34;;;-8.89;100.00
82413;BME280;72056;51.980;15.436;2024-01-11T03:40:06;102102.44;;;-8.73;100.00
82413;BME280;72056;51.980;15.436;2024-01-11T03:42:34;102100.66;;;-8.74;100.00
82413;BME280;72056;51.980;15.436;2024-01-11T03:45:01;102098.00;;;-8.77;100.00
82413;BME280;72056;51.980;15.436;2024-01-11T03:47:27;102098.91;;;-8.73;100.00
82413;BME280;72056;51.980;15.436;2024-01-11T03:49:53;102088.47;;;-8.56;100.00
82413;BME280;72056;51.980;15.436;2024-01-11T03:52:19;102067.44;;;-8.49;100.00
82413;BME280;72056;51.980;15.436;2024-01-11T03:54:45;102061.22;;;-8.54;100.00
82413;BME280;72056;51.980;15.436;2024-01-11T03:57:11;102087.78;;;-8.34;100.00
82413;BME280;72056;51.980;15.436;2024-01-11T03:59:37;102071.94;;;-8.34;100.00
82413;BME280;72056;51.980;15.436;2024-01-11T04:02:04;102083.53;;;-7.97;100.00
82413;BME280;72056;51.980;15.436;2024-01-11T04:04:30;102073.00;;;-7.91;100.00
82413;BME280;72056;51.980;15.436;2024-01-11T04:07:01;102081.84;;;-7.85;100.00
82413;BME280;72056;51.980;15.436;2024-01-11T04:09:27;102076.66;;;-7.60;100.00
82413;BME280;72056;51.980;15.436;2024-01-11T04:11:54;102060.88;;;-7.45;100.00
82413;BME280;72056;51.980;15.436;2024-01-11T04:14:21;102051.13;;;-7.51;100.00
82413;BME280;72056;51.980;15.436;2024-01-11T04:16:47;102071.50;;;-7.24;100.00
82413;BME280;72056;51.980;15.436;2024-01-11T04:19:13;102062.66;;;-7.35;100.00
82413;BME280;72056;51.980;15.436;2024-01-11T04:21:40;102090.91;;;-7.19;100.00
82413;BME280;72056;51.980;15.436;2024-01-11T04:24:07;102082.97;;;-7.13;100.00
82413;BME280;72056;51.980;15.436;2024-01-11T04:26:33;102082.13;;;-6.99;100.00
82413;BME280;72056;51.980;15.436;2024-01-11T04:29:00;102072.41;;;-6.90;100.00
82413;BME280;72056;51.980;15.436;2024-01-11T04:31:27;102076.81;;;-6.78;100.00
82413;BME280;72056;51.980;15.436;2024-01-11T04:33:52;102078.63;;;-6.50;100.00
82413;BME280;72056;51.980;15.436;2024-01-11T04:36:20;102081.25;;;-6.54;100.00
82413;BME280;72056;51.980;15.436;2024-01-11T04:38:47;102075.06;;;-6.53;100.00
82413;BME280;72056;51.980;15.436;2024-01-11T04:41:14;102060.06;;;-6.71;100.00
82413;BME280;72056;51.980;15.436;2024-01-11T04:43:42;102088.28;;;-6.73;100.00
82413;BME280;72056;51.980;15.436;2024-01-11T04:46:19;102095.34;;;-6.95;100.00
82413;BME280;72056;51.980;15.436;2024-01-11T04:48:45;102069.75;;;-7.22;100.00
82413;BME280;72056;51.980;15.436;2024-01-11T04:51:12;102060.00;;;-7.36;100.00
82413;BME280;72056;51.980;15.436;2024-01-11T04:53:39;102078.53;;;-7.29;100.00
82413;BME280;72056;51.980;15.436;2024-01-11T04:56:07;102101.44;;;-7.29;100.00
82413;BME280;72056;51.980;15.436;2024-01-11T04:58:34;102084.69;;;-7.31;100.00
82413;BME280;72056;51.980;15.436;2024-01-11T05:01:06;102094.41;;;-7.30;100.00
82413;BME280;72056;51.980;15.436;2024-01-11T05:03:32;102079.38;;;-7.42;100.00
82413;BME280;72056;51.980;15.436;2024-01-11T05:05:59;102094.38;;;-7.38;100.00
82413;BME280;72056;51.980;15.436;2024-01-11T05:08:26;102064.38;;;-7.46;100.00
82413;BME280;72056;51.980;15.436;2024-01-11T05:10:52;102065.22;;;-7.59;100.00
82413;BME280;72056;51.980;15.436;2024-01-11T05:13:18;102045.75;;;-7.78;100.00
82413;BME280;72056;51.980;15.436;2024-01-11T05:15:45;102036.06;;;-7.88;100.00
82413;BME280;72056;51.980;15.436;2024-01-11T05:18:11;102041.41;;;-7.70;100.00
82413;BME280;72056;51.980;15.436;2024-01-11T05:20:37;102054.66;;;-7.56;100.00
82413;BME280;72056;51.980;15.436;2024-01-11T05:23:04;102016.75;;;-7.64;100.00
82413;BME280;72056;51.980;15.436;2024-01-11T05:25:30;102019.44;;;-7.57;100.00
82413;BME280;72056;51.980;15.436;2024-01-11T05:28:03;102037.06;;;-7.42;100.00
82413;BME280;72056;51.980;15.436;2024-01-11T05:30:30;102038.81;;;-7.47;100.00
82413;BME280;72056;51.980;15.436;2024-01-11T05:32:56;102027.31;;;-7.70;100.00
82413;BME280;72056;51.980;15.436;2024-01-11T05:35:22;102006.16;;;-7.70;100.00
82413;BME280;72056;51.980;15.436;2024-01-11T05:37:53;102029.06;;;-7.69;100.00
82413;BME280;72056;51.980;15.436;2024-01-11T05:40:21;102052.00;;;-7.55;100.00
82413;BME280;72056;51.980;15.436;2024-01-11T05:42:47;102034.34;;;-7.62;100.00
82413;BME280;72056;51.980;15.436;2024-01-11T05:45:14;102035.28;;;-7.51;100.00
82413;BME280;72056;51.980;15.436;2024-01-11T05:47:43;102022.97;;;-7.52;100.00
82413;BME280;72056;51.980;15.436;2024-01-11T05:50:10;102028.25;;;-7.46;100.00
82413;BME280;72056;51.980;15.436;2024-01-11T05:52:38;102034.44;;;-7.36;100.00
82413;BME280;72056;51.980;15.436;2024-01-11T05:55:05;102014.16;;;-7.52;100.00
82413;BME280;72056;51.980;15.436;2024-01-11T05:57:32;102025.63;;;-7.26;100.00
82413;BME280;72056;51.980;15.436;2024-01-11T05:59:59;102015.94;;;-7.33;100.00
82413;BME280;72056;51.980;15.436;2024-01-11T06:02:25;101996.53;;;-7.41;100.00
82413;BME280;72056;51.980;15.436;2024-01-11T06:04:51;102021.22;;;-7.40;100.00
82413;BME280;72056;51.980;15.436;2024-01-11T06:07:18;102028.28;;;-7.33;100.00
82413;BME280;72056;51.980;15.436;2024-01-11T06:09:45;102033.59;;;-7.27;100.00
82413;BME280;72056;51.980;15.436;2024-01-11T06:12:11;102038.00;;;-7.22;100.00
82413;BME280;72056;51.980;15.436;2024-01-11T06:14:39;102038.88;;;-7.23;100.00
82413;BME280;72056;51.980;15.436;2024-01-11T06:17:06;102027.38;;;-7.31;100.00
82413;BME280;72056;51.980;15.436;2024-01-11T06:19:37;101995.63;;;-7.45;100.00
82413;BME280;72056;51.980;15.436;2024-01-11T06:22:04;102016.84;;;-7.16;100.00
82413;BME280;72056;51.980;15.436;2024-01-11T06:24:32;102028.28;;;-7.24;100.00
82413;BME280;72056;51.980;15.436;2024-01-11T06:26:58;102033.59;;;-7.17;100.00
82413;BME280;72056;51.980;15.436;2024-01-11T06:29:25;102032.69;;;-7.14;100.00
82413;BME280;72056;51.980;15.436;2024-01-11T06:31:51;102011.53;;;-7.28;100.00
82413;BME280;72056;51.980;15.436;2024-01-11T06:34:18;101993.88;;;-7.44;100.00
82413;BME280;72056;51.980;15.436;2024-01-11T06:36:47;102013.28;;;-7.21;100.00
82413;BME280;72056;51.980;15.436;2024-01-11T06:39:13;101998.28;;;-7.32;100.00
82413;BME280;72056;51.980;15.436;2024-01-11T06:41:39;102007.16;;;-7.15;100.00
82413;BME280;72056;51.980;15.436;2024-01-11T06:44:06;101990.34;;;-7.37;100.00
82413;BME280;72056;51.980;15.436;2024-01-11T06:46:34;101982.44;;;-7.37;100.00
82413;BME280;72056;51.980;15.436;2024-01-11T06:49:02;101988.59;;;-7.35;100.00
82413;BME280;72056;51.980;15.436;2024-01-11T06:51:28;101971.81;;;-7.51;100.00
82413;BME280;72056;51.980;15.436;2024-01-11T06:53:55;101992.13;;;-7.36;100.00
82413;BME280;72056;51.980;15.436;2024-01-11T06:56:20;101983.28;;;-7.44;100.00
82413;BME280;72056;51.980;15.436;2024-01-11T06:58:47;101977.16;;;-7.29;100.00
82413;BME280;72056;51.980;15.436;2024-01-11T07:01:13;101974.53;;;-7.28;100.00
82413;BME280;72056;51.980;15.436;2024-01-11T07:03:40;101959.53;;;-7.24;100.00
82413;BME280;72056;51.980;15.436;2024-01-11T07:06:06;101949.84;;;-7.33;100.00
82413;BME280;72056;51.980;15.436;2024-01-11T07:08:33;101942.75;;;-7.31;100.00
82413;BME280;72056;51.980;15.436;2024-01-11T07:11:00;101951.59;;;-7.17;100.00
82413;BME280;72056;51.980;15.436;2024-01-11T07:13:47;101956.88;;;-7.08;100.00
82413;BME280;72056;51.980;15.436;2024-01-11T07:16:14;101947.16;;;-7.09;100.00
82413;BME280;72056;51.980;15.436;2024-01-11T07:18:40;101926.88;;;-7.08;100.00
82413;BME280;72056;51.980;15.436;2024-01-11T07:21:06;101951.56;;;-6.88;100.00
82413;BME280;72056;51.980;15.436;2024-01-11T07:23:33;101956.00;;;-6.85;100.00
82413;BME280;72056;51.980;15.436;2024-01-11T07:25:59;101966.53;;;-6.78;100.00
82413;BME280;72056;51.980;15.436;2024-01-11T07:28:26;101985.09;;;-6.87;100.00
82413;BME280;72056;51.980;15.436;2024-01-11T07:30:54;101949.78;;;-6.74;100.00
82413;BME280;72056;51.980;15.436;2024-01-11T07:33:21;101958.59;;;-6.73;100.00
82413;BME280;72056;51.980;15.436;2024-01-11T07:35:47;101947.97;;;-6.61;100.00
82413;BME280;72056;51.980;15.436;2024-01-11T07:38:14;101946.19;;;-6.54;100.00
82413;BME280;72056;51.980;15.436;2024-01-11T07:40:41;101950.63;;;-6.50;100.00
82413;BME280;72056;51.980;15.436;2024-01-11T07:43:09;101958.59;;;-6.70;100.00
82413;BME280;72056;51.980;15.436;2024-01-11T07:45:35;101960.28;;;-6.42;100.00
82413;BME280;72056;51.980;15.436;2024-01-11T07:48:05;101980.59;;;-6.41;100.00
82413;BME280;72056;51.980;15.436;2024-01-11T07:50:32;101992.94;;;-6.41;100.00
82413;BME280;72056;51.980;15.436;2024-01-11T07:52:58;101959.38;;;-6.36;100.00
82413;BME280;72056;51.980;15.436;2024-01-11T07:55:24;101944.34;;;-6.24;100.00
82413;BME280;72056;51.980;15.436;2024-01-11T07:57:52;101924.03;;;-6.23;100.00
82413;BME280;72056;51.980;15.436;2024-01-11T08:00:19;101936.41;;;-6.30;100.00
82413;BME280;72056;51.980;15.436;2024-01-11T08:02:46;101933.81;;;-6.45;100.00
82413;BME280;72056;51.980;15.436;2024-01-11T08:05:13;101969.94;;;-6.15;100.00
82413;BME280;72056;51.980;15.436;2024-01-11T08:07:39;101957.44;;;-5.93;100.00
82413;BME280;72056;51.980;15.436;2024-01-11T08:10:07;101951.31;;;-6.04;100.00
82413;BME280;72056;51.980;15.436;2024-01-11T08:12:35;101971.53;;;-5.87;100.00
82413;BME280;72056;51.980;15.436;2024-01-11T08:15:03;101965.47;;;-6.02;100.00
82413;BME280;72056;51.980;15.436;2024-01-11T08:17:30;101956.69;;;-6.16;100.00
82413;BME280;72056;51.980;15.436;2024-01-11T08:19:56;101933.81;;;-6.39;100.00
82413;BME280;72056;51.980;15.436;2024-01-11T08:22:23;101949.63;;;-6.22;100.00
82413;BME280;72056;51.980;15.436;2024-01-11T08:24:49;101956.59;;;-6.00;100.00
82413;BME280;72056;51.980;15.436;2024-01-11T08:27:16;101960.16;;;-6.02;100.00
82413;BME280;72056;51.980;15.436;2024-01-11T08:29:43;101938.13;;;-6.18;100.00
82413;BME280;72056;51.980;15.436;2024-01-11T08:32:09;101949.53;;;-5.99;100.00
82413;BME280;72056;51.980;15.436;2024-01-11T08:34:37;101971.59;;;-5.93;100.00
82413;BME280;72056;51.980;15.436;2024-01-11T08:37:04;101953.84;;;-5.86;100.00
82413;BME280;72056;51.980;15.436;2024-01-11T08:39:30;101977.44;;;-5.39;100.00
82413;BME280;72056;51.980;15.436;2024-01-11T08:41:57;101958.81;;;-5.31;100.00
82413;BME280;72056;51.980;15.436;2024-01-11T08:44:24;101963.41;;;-5.58;100.00
82413;BME280;72056;51.980;15.436;2024-01-11T08:46:50;101965.81;;;-5.21;100.00
82413;BME280;72056;51.980;15.436;2024-01-11T08:49:17;101962.41;;;-5.37;100.00
82413;BME280;72056;51.980;15.436;2024-01-11T08:51:45;101979.22;;;-5.43;100.00
82413;BME280;72056;51.980;15.436;2024-01-11T08:54:12;101978.19;;;-5.20;100.00
82413;BME280;72056;51.980;15.436;2024-01-11T08:56:39;101966.72;;;-5.28;100.00
82413;BME280;72056;51.980;15.436;2024-01-11T08:59:07;101935.88;;;-5.40;100.00
82413;BME280;72056;51.980;15.436;2024-01-11T09:01:35;101959.66;;;-5.26;100.00
82413;BME280;72056;51.980;15.436;2024-01-11T09:04:02;101951.44;;;-4.98;100.00
82413;BME280;72056;51.980;15.436;2024-01-11T09:06:28;101931.25;;;-5.15;100.00
82413;BME280;72056;51.980;15.436;2024-01-11T09:08:55;101943.78;;;-5.36;100.00
82413;BME280;72056;51.980;15.436;2024-01-11T09:11:21;101949.13;;;-5.39;100.00
82413;BME280;72056;51.980;15.436;2024-01-11T09:13:49;101952.56;;;-5.24;100.00
82413;BME280;72056;51.980;15.436;2024-01-11T09:16:19;101938.53;;;-5.39;100.00
82413;BME280;72056;51.980;15.436;2024-01-11T09:18:46;101952.63;;;-5.35;100.00
82413;BME280;72056;51.980;15.436;2024-01-11T09:21:12;101961.13;;;-4.89;100.00
82413;BME280;72056;51.980;15.436;2024-01-11T09:23:39;101955.59;;;-4.68;100.00
82413;BME280;72056;51.980;15.436;2024-01-11T09:26:05;101964.38;;;-4.63;100.00
82413;BME280;72056;51.980;15.436;2024-01-11T09:28:32;101949.66;;;-4.96;100.00
82413;BME280;72056;51.980;15.436;2024-01-11T09:30:58;101952.03;;;-4.67;100.00
82413;BME280;72056;51.980;15.436;2024-01-11T09:33:26;101955.34;;;-4.46;100.00
82413;BME280;72056;51.980;15.436;2024-01-11T09:35:53;101927.72;;;-5.17;100.00
82413;BME280;72056;51.980;15.436;2024-01-11T09:38:20;101939.78;;;-4.80;100.00
82413;BME280;72056;51.980;15.436;2024-01-11T09:41:05;101957.25;;;-4.58;100.00
82413;BME280;72056;51.980;15.436;2024-01-11T09:43:35;101964.63;;;-4.87;100.00
82413;BME280;72056;51.980;15.436;2024-01-11T09:46:05;101958.88;;;-4.46;100.00
82413;BME280;72056;51.980;15.436;2024-01-11T09:48:36;101957.28;;;-4.61;100.00
82413;BME280;72056;51.980;15.436;2024-01-11T09:51:04;101928.41;;;-4.94;100.00
82413;BME280;72056;51.980;15.436;2024-01-11T09:53:36;101949.41;;;-4.68;100.00
82413;BME280;72056;51.980;15.436;2024-01-11T09:56:08;101945.78;;;-4.63;100.00
82413;BME280;72056;51.980;15.436;2024-01-11T09:58:35;101939.78;;;-4.80;100.00
82413;BME280;72056;51.980;15.436;2024-01-11T10:01:09;101924.84;;;-4.93;100.00
82413;BME280;72056;51.980;15.436;2024-01-11T10:03:36;101935.22;;;-4.67;100.00
82413;BME280;72056;51.980;15.436;2024-01-11T10:06:06;101922.13;;;-4.84;100.00
82413;BME280;72056;51.980;15.436;2024-01-11T10:08:33;101936.00;;;-4.56;100.00
82413;BME280;72056;51.980;15.436;2024-01-11T10:11:00;101925.97;;;-4.33;100.00
82413;BME280;72056;51.980;15.436;2024-01-11T10:13:28;101915.09;;;-4.12;100.00
82413;BME280;72056;51.980;15.436;2024-01-11T10:16:11;101928.13;;;-4.65;100.00
82413;BME280;72056;51.980;15.436;2024-01-11T10:18:44;101921.66;;;-4.41;100.00
82413;BME280;72056;51.980;15.436;2024-01-11T10:21:10;101947.50;;;-4.59;100.00
82413;BME280;72056;51.980;15.436;2024-01-11T10:23:36;101932.44;;;-4.57;100.00
82413;BME280;72056;51.980;15.436;2024-01-11T10:26:05;101930.53;;;-4.42;100.00
82413;BME280;72056;51.980;15.436;2024-01-11T10:28:33;101933.41;;;-4.64;100.00
82413;BME280;72056;51.980;15.436;2024-01-11T10:31:04;101930.09;;;-4.85;100.00
82413;BME280;72056;51.980;15.436;2024-01-11T10:33:33;101941.44;;;-4.70;100.00
82413;BME280;72056;51.980;15.436;2024-01-11T10:36:00;101979.81;;;-4.16;100.00
82413;BME280;72056;51.980;15.436;2024-01-11T10:38:30;101991.53;;;-3.61;100.00
82413;BME280;72056;51.980;15.436;2024-01-11T10:40:59;101979.53;;;-3.93;100.00
82413;BME280;72056;51.980;15.436;2024-01-11T10:43:27;101998.84;;;-3.76;100.00
82413;BME280;72056;51.980;15.436;2024-01-11T10:45:59;101980.00;;;-3.62;100.00
82413;BME280;72056;51.980;15.436;2024-01-11T10:48:30;101989.94;;;-3.75;100.00
82413;BME280;72056;51.980;15.436;2024-01-11T10:51:00;101968.56;;;-3.68;100.00
82413;BME280;72056;51.980;15.436;2024-01-11T10:53:47;101962.56;;;-3.83;100.00
82413;BME280;72056;51.980;15.436;2024-01-11T10:56:14;101975.97;;;-3.90;100.00
82413;BME280;72056;51.980;15.436;2024-01-11T10:58:44;101946.94;;;-4.08;100.00
82413;BME280;72056;51.980;15.436;2024-01-11T11:01:14;101940.50;;;-3.91;100.00
82413;BME280;72056;51.980;15.436;2024-01-11T11:03:41;101924.38;;;-3.77;100.00
82413;BME280;72056;51.980;15.436;2024-01-11T11:06:11;101930.03;;;-4.03;100.00
82413;BME280;72056;51.980;15.436;2024-01-11T11:08:39;101919.13;;;-3.82;100.00
82413;BME280;72056;51.980;15.436;2024-01-11T11:11:05;101937.53;;;-3.68;100.00
82413;BME280;72056;51.980;15.436;2024-01-11T11:13:34;101912.94;;;-3.84;100.00
82413;BME280;72056;51.980;15.436;2024-01-11T11:16:00;101930.56;;;-3.77;100.00
82413;BME280;72056;51.980;15.436;2024-01-11T11:18:30;101936.66;;;-3.68;100.00
82413;BME280;72056;51.980;15.436;2024-01-11T11:20:57;101931.94;;;-3.51;100.00
82413;BME280;72056;51.980;15.436;2024-01-11T11:23:23;101931.16;;;-3.56;100.00
82413;BME280;72056;51.980;15.436;2024-01-11T11:25:49;101920.56;;;-3.58;100.00
82413;BME280;72056;51.980;15.436;2024-01-11T11:28:17;101902.69;;;-3.51;100.00
82413;BME280;72056;51.980;15.436;2024-01-11T11:30:45;101929.28;;;-3.51;100.00
82413;BME280;72056;51.980;15.436;2024-01-11T11:33:18;101909.66;;;-3.44;100.00
82413;BME280;72056;51.980;15.436;2024-01-11T11:35:46;101894.78;;;-3.56;100.00
82413;BME280;72056;51.980;15.436;2024-01-11T11:38:21;101925.00;;;-3.60;100.00
82413;BME280;72056;51.980;15.436;2024-01-11T11:40:48;101906.91;;;-3.38;100.00
82413;BME280;72056;51.980;15.436;2024-01-11T11:43:18;101914.00;;;-3.37;100.00
82413;BME280;72056;51.980;15.436;2024-01-11T11:45:47;101897.34;;;-3.51;100.00
82413;BME280;72056;51.980;15.436;2024-01-11T11:53:33;101904.81;;;-3.16;100.00
82413;BME280;72056;51.980;15.436;2024-01-11T11:56:00;101870.41;;;-3.30;100.00
82413;BME280;72056;51.980;15.436;2024-01-11T11:58:28;101889.25;;;-3.42;100.00
82413;BME280;72056;51.980;15.436;2024-01-11T12:00:58;101865.94;;;-3.28;100.00
82413;BME280;72056;51.980;15.436;2024-01-11T12:03:35;101856.91;;;-3.19;100.00
82413;BME280;72056;51.980;15.436;2024-01-11T12:06:03;101886.06;;;-3.10;100.00
82413;BME280;72056;51.980;15.436;2024-01-11T12:08:33;101869.69;;;-3.40;100.00
82413;BME280;72056;51.980;15.436;2024-01-11T12:10:59;101860.25;;;-3.08;100.00
82413;BME280;72056;51.980;15.436;2024-01-11T12:13:26;101871.63;;;-2.99;100.00
82413;BME280;72056;51.980;15.436;2024-01-11T12:15:52;101842.25;;;-2.94;100.00
82413;BME280;72056;51.980;15.436;2024-01-11T12:18:18;101855.03;;;-3.13;100.00
82413;BME280;72056;51.980;15.436;2024-01-11T12:20:45;101857.56;;;-3.05;100.00
82413;BME280;72056;51.980;15.436;2024-01-11T12:23:12;101851.94;;;-2.90;100.00
82413;BME280;72056;51.980;15.436;2024-01-11T12:25:42;101853.91;;;-3.00;100.00
82413;BME280;72056;51.980;15.436;2024-01-11T12:28:09;101857.56;;;-3.07;100.00
82413;BME280;72056;51.980;15.436;2024-01-11T12:30:36;101867.91;;;-2.89;100.00
82413;BME280;72056;51.980;15.436;2024-01-11T12:33:03;101843.78;;;-2.81;100.00
82413;BME280;72056;51.980;15.436;2024-01-11T12:35:33;101843.22;;;-2.98;100.00